Time;durP1;ratioP1;P1;durP2;ratioP2;P2;SDS_P1;SDS_P2;PMS_P1;PMS_P2;Temp;Humidity;BMP_temperature;BMP_pressure;BME280_temperature;BME280_humidity;BME280_pressure;Samples;Min_cycle;Max_cycle;Signal;HPM_P1;HPM_P2
2021/01/23 00:00:20;;;;;;;;;;;;;;;19.90;36.00;100724.66;5055782;28;859;-47
2021/01/23 00:06:20;;;;;;;;;;;;;;;20.13;35.37;100722.94;5055774;28;1211;-47
2021/01/23 00:08:46;;;;;;;;;;;;;;;20.42;34.57;100725.50;5055219;28;1991;-58
2021/01/23 00:11:11;;;;;;;;;;;;;;;19.98;35.45;100721.25;5055848;28;799;-58
2021/01/23 00:13:37;;;;;;;;;;;;;;;19.76;35.89;100724.53;5055956;28;757;-56
2021/01/23 00:16:03;;;;;;;;;;;;;;;19.22;37.39;100723.81;5055602;28;788;-51
2021/01/23 00:18:28;;;;;;;;;;;;;;;19.72;36.14;100717.97;5068144;28;1163;-55
2021/01/23 00:20:53;;;;;;;;;;;;;;;20.57;34.51;100726.41;5075888;28;744;-58
2021/01/23 00:23:19;;;;;;;;;;;;;;;20.13;35.25;100722.94;5062070;28;958;-58
2021/01/23 00:25:44;;;;;;;;;;;;;;;20.17;35.27;100718.44;5059760;28;783;-58
2021/01/23 00:28:10;;;;;;;;;;;;;;;19.41;36.86;100718.38;5059309;28;1922;-58
2021/01/23 00:30:35;;;;;;;;;;;;;;;19.33;37.13;100722.56;5059321;28;744;-58
2021/01/23 00:36:35;;;;;;;;;;;;;;;20.03;35.37;100715.63;5059329;28;582;-49
2021/01/23 00:39:01;;;;;;;;;;;;;;;19.87;35.79;100708.69;5058944;28;994;-47
2021/01/23 00:41:27;;;;;;;;;;;;;;;19.25;37.21;100720.47;5059162;28;863;-59
2021/01/23 00:43:56;;;;;;;;;;;;;;;19.61;36.65;100711.75;5041571;28;1143;-58
2021/01/23 00:46:22;;;;;;;;;;;;;;;20.54;34.62;100710.41;5040895;28;784;-59
2021/01/23 00:48:48;;;;;;;;;;;;;;;20.08;35.34;100707.28;5059239;28;1918;-60
2021/01/23 00:51:13;;;;;;;;;;;;;;;19.94;35.63;100709.16;5040893;28;899;-59
2021/01/23 00:53:39;;;;;;;;;;;;;;;19.54;36.57;100711.31;5058506;28;1013;-60
2021/01/23 00:56:04;;;;;;;;;;;;;;;19.54;36.51;100711.31;5041407;28;902;-60
2021/01/23 00:58:30;;;;;;;;;;;;;;;20.44;34.84;100701.19;5059089;28;815;-52
2021/01/23 01:00:55;;;;;;;;;;;;;;;21.05;33.59;100703.19;5058368;28;1042;-50
2021/01/23 01:06:32;;;;;;;;;;;;;;;20.19;35.29;100705.19;5058384;28;1272;-60
2021/01/23 01:08:57;;;;;;;;;;;;;;;19.81;36.19;100703.25;5057819;28;1981;-60
2021/01/23 01:11:23;;;;;;;;;;;;;;;19.34;36.97;100702.16;5058680;28;855;-60
2021/01/23 01:13:48;;;;;;;;;;;;;;;19.50;36.60;100691.75;5041128;28;1094;-59
2021/01/23 01:16:14;;;;;;;;;;;;;;;20.59;34.62;100691.00;5058424;28;879;-59
2021/01/23 01:18:39;;;;;;;;;;;;;;;20.20;35.41;100697.72;5072700;28;1202;-55
2021/01/23 01:21:05;;;;;;;;;;;;;;;20.05;35.72;100702.34;5078332;28;847;-59
2021/01/23 01:23:30;;;;;;;;;;;;;;;19.71;36.18;100694.25;5062884;28;962;-60
2021/01/23 01:25:55;;;;;;;;;;;;;;;19.36;37.19;100699.91;5058398;28;748;-60
2021/01/23 01:28:21;;;;;;;;;;;;;;;20.35;35.15;100697.47;5057865;28;1989;-60
2021/01/23 01:30:46;;;;;;;;;;;;;;;20.23;35.06;100695.19;5058012;28;773;-53
2021/01/23 01:36:47;;;;;;;;;;;;;;;19.53;36.75;100693.94;5056905;28;1033;-60
2021/01/23 01:39:12;;;;;;;;;;;;;;;19.08;37.71;100691.44;5040359;28;870;-49
2021/01/23 01:41:38;;;;;;;;;;;;;;;20.14;35.43;100686.75;5057902;28;795;-61
2021/01/23 01:44:04;;;;;;;;;;;;;;;20.40;34.93;100691.88;5058078;28;747;-60
2021/01/23 01:46:29;;;;;;;;;;;;;;;20.05;35.67;100691.31;5057988;28;756;-52
2021/01/23 01:48:56;;;;;;;;;;;;;;;19.74;36.12;100688.97;5039806;28;1979;-57
2021/01/23 01:51:21;;;;;;;;;;;;;;;19.37;37.11;100686.97;5057621;28;820;-52
2021/01/23 01:53:47;;;;;;;;;;;;;;;19.60;36.69;100685.28;5039838;28;955;-56
2021/01/23 01:56:12;;;;;;;;;;;;;;;20.51;34.67;100679.53;5040131;28;744;-57
2021/01/23 01:58:37;;;;;;;;;;;;;;;20.15;35.29;100685.63;5057309;28;768;-58
2021/01/23 02:01:03;;;;;;;;;;;;;;;19.90;35.87;100675.78;5057747;28;811;-57
2021/01/23 02:06:42;;;;;;;;;;;;;;;19.81;36.35;100672.06;5017604;28;752;-49
2021/01/23 02:09:19;;;;;;;;;;;;;;;20.55;34.78;100667.88;5017503;28;1910;-56
2021/01/23 02:12:11;;;;;;;;;;;;;;;19.99;35.83;100667.66;5018038;28;789;-58
2021/01/23 02:14:42;;;;;;;;;;;;;;;19.97;35.63;100661.63;5017795;28;816;-57
2021/01/23 02:17:08;;;;;;;;;;;;;;;19.20;37.19;100655.19;5019146;28;1100;-57
2021/01/23 02:19:52;;;;;;;;;;;;;;;19.97;35.92;100656.13;5057454;28;831;-57
2021/01/23 02:22:21;;;;;;;;;;;;;;;20.36;34.94;100654.94;5047044;28;962;-59
2021/01/23 02:24:47;;;;;;;;;;;;;;;19.94;35.80;100656.72;5016356;28;768;-48
2021/01/23 02:27:31;;;;;;;;;;;;;;;19.63;36.34;100652.44;5016240;28;840;-60
2021/01/23 02:30:02;;;;;;;;;;;;;;;19.21;37.46;100653.25;5017044;28;1977;-51
2021/01/23 02:32:29;;;;;;;;;;;;;;;20.03;35.72;100651.34;5017340;28;753;-59
2021/01/23 02:34:55;;;;;;;;;;;;;;;20.48;34.71;100648.91;5016526;28;749;-59
2021/01/23 02:37:20;;;;;;;;;;;;;;;20.02;35.63;100650.53;5016653;28;963;-59
2021/01/23 02:39:46;;;;;;;;;;;;;;;19.81;36.22;100650.81;5017296;28;855;-54
2021/01/23 02:42:11;;;;;;;;;;;;;;;19.25;37.36;100654.28;5016045;28;832;-59
2021/01/23 02:44:37;;;;;;;;;;;;;;;19.63;36.63;100643.34;5017001;28;785;-51
2021/01/23 02:47:02;;;;;;;;;;;;;;;20.52;34.76;100645.25;5017446;28;784;-60
2021/01/23 02:49:28;;;;;;;;;;;;;;;20.03;35.61;100649.38;5017088;28;1977;-58
2021/01/23 02:52:10;;;;;;;;;;;;;;;20.05;35.84;100644.41;5016416;28;1018;-59
2021/01/23 02:54:40;;;;;;;;;;;;;;;19.19;37.37;100639.75;5016006;28;832;-59
2021/01/23 02:57:05;;;;;;;;;;;;;;;19.98;35.84;100638.44;5016087;28;741;-58
2021/01/23 02:59:31;;;;;;;;;;;;;;;20.72;34.38;100629.47;5016824;28;780;-58
2021/01/23 03:01:56;;;;;;;;;;;;;;;20.09;35.46;100625.28;5015827;28;765;-58
2021/01/23 03:04:29;;;;;;;;;;;;;;;19.89;36.18;100629.19;5016210;28;984;-58
2021/01/23 03:06:55;;;;;;;;;;;;;;;19.35;37.14;100634.88;5014991;28;1026;-55
2021/01/23 03:09:20;;;;;;;;;;;;;;;19.77;36.27;100638.72;5015987;28;1918;-48
2021/01/23 03:11:46;;;;;;;;;;;;;;;20.64;34.47;100639.22;5016827;28;792;-58
2021/01/23 03:14:12;;;;;;;;;;;;;;;20.10;35.44;100624.16;5016467;28;847;-58
2021/01/23 03:16:37;;;;;;;;;;;;;;;20.08;35.60;100627.22;5016823;28;792;-52
2021/01/23 03:19:03;;;;;;;;;;;;;;;19.38;36.82;100626.03;5033774;28;1326;-50
2021/01/23 03:21:28;;;;;;;;;;;;;;;19.76;36.39;100628.78;5036286;28;843;-47
2021/01/23 03:23:54;;;;;;;;;;;;;;;20.57;34.77;100621.44;5018293;28;1005;-59
2021/01/23 03:26:19;;;;;;;;;;;;;;;20.07;35.73;100619.25;5016540;28;744;-59
2021/01/23 03:28:45;;;;;;;;;;;;;;;20.01;36.01;100613.00;5016315;28;1914;-60
2021/01/23 03:31:10;;;;;;;;;;;;;;;19.44;37.06;100618.50;5016600;28;729;-61
2021/01/23 03:34:03;;;;;;;;;;;;;;;19.40;37.30;100615.50;5016578;28;773;-60
2021/01/23 03:36:50;;;;;;;;;;;;;;;20.68;34.50;100607.13;5016074;28;931;-59
2021/01/23 03:39:16;;;;;;;;;;;;;;;20.02;35.61;100606.38;5016340;28;819;-59
2021/01/23 03:41:41;;;;;;;;;;;;;;;20.02;35.68;100609.13;5016690;28;823;-59
2021/01/23 03:44:06;;;;;;;;;;;;;;;19.28;37.35;100615.94;5016627;28;748;-60
2021/01/23 03:46:32;;;;;;;;;;;;;;;19.36;37.39;100617.22;5016698;28;740;-59
2021/01/23 03:48:58;;;;;;;;;;;;;;;20.40;35.10;100622.81;5016397;28;1918;-57
2021/01/23 03:51:26;;;;;;;;;;;;;;;20.07;35.59;100611.78;5016175;28;768;-56
2021/01/23 03:53:52;;;;;;;;;;;;;;;19.93;35.84;100619.19;5015066;28;963;-52
2021/01/23 03:56:17;;;;;;;;;;;;;;;19.52;36.75;100609.56;5016796;28;764;-51
2021/01/23 03:58:44;;;;;;;;;;;;;;;18.89;38.16;100616.16;5016554;28;500;-57
2021/01/23 04:01:09;;;;;;;;;;;;;;;20.07;35.93;100608.22;5020335;28;725;-49
2021/01/23 04:07:09;;;;;;;;;;;;;;;19.74;36.35;100608.97;5019830;28;931;-60
2021/01/23 04:09:35;;;;;;;;;;;;;;;19.20;37.59;100608.34;5020340;28;1902;-48
2021/01/23 04:12:00;;;;;;;;;;;;;;;19.45;37.26;100603.59;5019703;28;773;-50
2021/01/23 04:14:26;;;;;;;;;;;;;;;20.34;35.16;100604.69;5019891;28;836;-58
2021/01/23 04:16:54;;;;;;;;;;;;;;;20.17;35.36;100595.06;5020127;28;816;-46
2021/01/23 04:19:20;;;;;;;;;;;;;;;19.82;36.41;100596.44;5038757;28;1199;-56
2021/01/23 04:21:45;;;;;;;;;;;;;;;19.55;36.91;100597.13;5037575;28;831;-57
2021/01/23 04:24:11;;;;;;;;;;;;;;;19.18;38.00;100604.22;5036147;28;966;-45
2021/01/23 04:26:39;;;;;;;;;;;;;;;20.17;35.78;100600.59;5038922;28;876;-45
2021/01/23 04:29:04;;;;;;;;;;;;;;;20.51;34.93;100604.94;5038532;28;1975;-59
2021/01/23 04:31:30;;;;;;;;;;;;;;;19.96;35.98;100613.06;5038936;28;836;-56
2021/01/23 04:37:27;;;;;;;;;;;;;;;19.22;37.53;100606.09;5032847;28;959;-46
2021/01/23 04:39:52;;;;;;;;;;;;;;;20.24;35.75;100597.41;5028370;28;836;-46
2021/01/23 04:42:18;;;;;;;;;;;;;;;20.26;35.46;100599.88;5039029;28;808;-57
2021/01/23 04:44:43;;;;;;;;;;;;;;;19.86;36.09;100603.00;5039235;28;745;-57
2021/01/23 04:47:08;;;;;;;;;;;;;;;19.70;36.34;100610.69;5038917;28;769;-59
2021/01/23 04:49:34;;;;;;;;;;;;;;;19.28;37.49;100613.19;5038828;28;1910;-57
2021/01/23 04:52:02;;;;;;;;;;;;;;;20.18;35.78;100604.97;5036411;28;962;-44
2021/01/23 04:54:28;;;;;;;;;;;;;;;20.30;35.36;100610.03;5017633;28;790;-44
2021/01/23 04:56:53;;;;;;;;;;;;;;;19.99;35.84;100612.47;5030729;28;856;-57
2021/01/23 04:59:19;;;;;;;;;;;;;;;19.74;36.60;100610.88;5037160;28;884;-57
2021/01/23 05:01:45;;;;;;;;;;;;;;;19.32;37.31;100608.72;5038325;28;879;-56
2021/01/23 05:04:10;;;;;;;;;;;;;;;19.87;36.41;100606.59;5025876;28;1430;-60
2021/01/23 05:06:40;;;;;;;;;;;;;;;20.55;34.78;100615.38;5051979;28;1207;-59
2021/01/23 05:09:06;;;;;;;;;;;;;;;20.04;35.74;100604.09;5058301;28;1921;-60
2021/01/23 05:11:47;;;;;;;;;;;;;;;19.86;36.27;100602.19;5057325;28;851;-57
2021/01/23 05:14:13;;;;;;;;;;;;;;;19.22;37.63;100602.53;5058394;28;921;-60
2021/01/23 05:16:38;;;;;;;;;;;;;;;19.68;36.76;100596.34;5058518;28;795;-57
2021/01/23 05:19:04;;;;;;;;;;;;;;;20.55;34.84;100596.03;5075763;28;1203;-63
2021/01/23 05:21:30;;;;;;;;;;;;;;;20.48;34.81;100591.75;5060101;28;796;-56
2021/01/23 05:24:21;;;;;;;;;;;;;;;19.93;35.86;100589.66;5059724;28;943;-45
2021/01/23 05:26:54;;;;;;;;;;;;;;;19.58;36.79;100593.75;5056753;28;1586;-49
2021/01/23 05:29:19;;;;;;;;;;;;;;;19.14;37.79;100587.47;5058131;28;1914;-58
2021/01/23 05:31:45;;;;;;;;;;;;;;;20.09;35.53;100590.22;5058370;28;847;-59
2021/01/23 05:34:38;;;;;;;;;;;;;;;20.69;34.59;100596.91;5057851;28;820;-59
2021/01/23 05:37:06;;;;;;;;;;;;;;;20.03;35.53;100591.41;5057856;28;1117;-54
2021/01/23 05:39:53;;;;;;;;;;;;;;;19.92;35.91;100592.72;5058153;28;835;-57
2021/01/23 05:42:19;;;;;;;;;;;;;;;19.19;37.60;100594.84;5057769;28;752;-59
2021/01/23 05:45:03;;;;;;;;;;;;;;;20.01;36.03;100590.91;5058057;28;804;-60
2021/01/23 05:47:28;;;;;;;;;;;;;;;20.67;34.47;100599.13;5057841;28;807;-60
2021/01/23 05:49:53;;;;;;;;;;;;;;;20.10;35.53;100602.06;5057479;28;1910;-60
2021/01/23 05:52:19;;;;;;;;;;;;;;;19.95;35.66;100583.81;5057853;28;966;-58
2021/01/23 05:54:44;;;;;;;;;;;;;;;19.49;36.90;100599.94;5058026;28;800;-59
2021/01/23 05:57:10;;;;;;;;;;;;;;;19.14;37.80;100588.28;5057846;28;865;-48
2021/01/23 05:59:35;;;;;;;;;;;;;;;19.65;36.60;100585.94;5040204;28;875;-48
2021/01/23 06:02:03;;;;;;;;;;;;;;;20.52;35.05;100587.25;5057883;28;772;-56
2021/01/23 06:04:59;;;;;;;;;;;;;;;20.44;34.97;100587.97;5057297;28;835;-61
2021/01/23 06:07:43;;;;;;;;;;;;;;;20.07;35.67;100586.94;5017484;28;940;-58
2021/01/23 06:10:23;;;;;;;;;;;;;;;19.51;36.98;100587.78;5017518;28;1977;-59
2021/01/23 06:12:49;;;;;;;;;;;;;;;19.14;37.69;100593.00;5017882;28;820;-62
2021/01/23 06:15:33;;;;;;;;;;;;;;;20.21;35.78;100578.69;5017783;28;753;-64
2021/01/23 06:17:59;;;;;;;;;;;;;;;20.17;35.48;100574.91;5033985;28;1148;-47
2021/01/23 06:20:39;;;;;;;;;;;;;;;19.85;36.10;100575.72;5057629;28;812;-62
2021/01/23 06:23:05;;;;;;;;;;;;;;;19.44;37.04;100577.94;5034232;28;958;-59
2021/01/23 06:25:49;;;;;;;;;;;;;;;19.55;36.85;100577.81;5017494;28;772;-60
2021/01/23 06:28:18;;;;;;;;;;;;;;;20.57;34.86;100566.19;5017350;28;1969;-61
2021/01/23 06:30:43;;;;;;;;;;;;;;;20.15;35.80;100571.63;5017326;28;756;-51
2021/01/23 06:33:24;;;;;;;;;;;;;;;19.84;36.25;100563.88;5016327;28;777;-59
2021/01/23 06:36:01;;;;;;;;;;;;;;;19.47;37.04;100573.78;5017179;28;859;-65
2021/01/23 06:38:27;;;;;;;;;;;;;;;19.28;37.49;100571.03;5016870;28;1002;-58
2021/01/23 06:40:52;;;;;;;;;;;;;;;20.34;35.30;100574.31;5017039;28;848;-51
2021/01/23 06:43:17;;;;;;;;;;;;;;;20.07;35.72;100570.38;5017189;28;816;-58
2021/01/23 06:45:43;;;;;;;;;;;;;;;19.93;36.06;100566.75;5017123;28;813;-55
2021/01/23 06:48:09;;;;;;;;;;;;;;;19.32;37.34;100566.53;5016847;28;1909;-49
2021/01/23 06:50:35;;;;;;;;;;;;;;;19.44;37.40;100566.91;5017105;28;780;-53
2021/01/23 06:53:01;;;;;;;;;;;;;;;20.44;35.13;100556.75;5016714;28;959;-52
2021/01/23 06:55:48;;;;;;;;;;;;;;;20.08;35.71;100555.47;5016863;28;800;-45
2021/01/23 06:58:15;;;;;;;;;;;;;;;19.85;36.30;100557.22;5016767;28;891;-47
2021/01/23 07:00:40;;;;;;;;;;;;;;;19.21;37.65;100559.53;5016064;28;883;-53
2021/01/23 07:03:15;;;;;;;;;;;;;;;19.71;36.54;100550.81;5017005;28;777;-57
2021/01/23 07:05:56;;;;;;;;;;;;;;;20.60;34.92;100554.53;5027925;28;1125;-61
2021/01/23 07:08:22;;;;;;;;;;;;;;;20.08;36.01;100549.94;5035194;28;1989;-47
2021/01/23 07:11:08;;;;;;;;;;;;;;;19.76;36.66;100551.53;5076469;28;810;-57
2021/01/23 07:13:34;;;;;;;;;;;;;;;19.23;37.97;100546.28;5068816;28;1513;-58
2021/01/23 07:15:59;;;;;;;;;;;;;;;20.29;35.43;100544.06;5076841;28;795;-57
2021/01/23 07:18:25;;;;;;;;;;;;;;;20.94;34.12;100542.25;5075959;28;1191;-58
2021/01/23 07:20:50;;;;;;;;;;;;;;;21.19;33.59;100544.44;5076434;28;740;-44
2021/01/23 07:23:16;;;;;;;;;;;;;;;20.47;35.02;100537.63;5063267;28;1010;-63
2021/01/23 07:25:41;;;;;;;;;;;;;;;19.93;36.10;100539.16;5039134;28;1065;-59
2021/01/23 07:28:06;;;;;;;;;;;;;;;19.26;37.70;100540.16;5056104;28;1914;-49
2021/01/23 07:30:32;;;;;;;;;;;;;;;19.63;36.96;100535.78;5056402;28;720;-59
2021/01/23 07:32:57;;;;;;;;;;;;;;;20.58;35.00;100537.41;5055990;28;768;-45
2021/01/23 07:35:23;;;;;;;;;;;;;;;20.21;35.72;100531.75;5059856;28;875;-47
2021/01/23 07:37:55;;;;;;;;;;;;;;;19.98;36.18;100539.09;5060051;28;955;-63
2021/01/23 07:40:24;;;;;;;;;;;;;;;19.18;37.64;100544.41;5042300;28;804;-62
2021/01/23 07:42:49;;;;;;;;;;;;;;;19.81;36.68;100545.97;5042758;28;805;-59
2021/01/23 07:45:15;;;;;;;;;;;;;;;20.73;34.70;100552.91;5060379;28;883;-56
2021/01/23 07:47:41;;;;;;;;;;;;;;;20.19;35.73;100550.59;5059909;28;719;-46
2021/01/23 07:50:09;;;;;;;;;;;;;;;20.03;36.27;100546.44;5060450;28;1979;-57
2021/01/23 07:52:35;;;;;;;;;;;;;;;19.14;37.88;100540.63;5059829;28;975;-60
2021/01/23 07:55:01;;;;;;;;;;;;;;;19.82;36.48;100541.25;5059527;28;843;-61
2021/01/23 07:57:26;;;;;;;;;;;;;;;20.71;34.74;100541.34;5026042;28;932;-47
2021/01/23 07:59:53;;;;;;;;;;;;;;;20.28;35.83;100531.38;5060019;28;803;-57
2021/01/23 08:02:18;;;;;;;;;;;;;;;20.08;35.92;100527.06;5059470;28;871;-59
2021/01/23 08:04:47;;;;;;;;;;;;;;;19.20;37.76;100531.16;5059934;28;736;-60
2021/01/23 08:07:19;;;;;;;;;;;;;;;19.72;36.81;100520.16;5059396;28;1076;-54
2021/01/23 08:09:44;;;;;;;;;;;;;;;20.59;35.05;100519.72;5059633;28;1914;-58
2021/01/23 08:12:17;;;;;;;;;;;;;;;20.30;35.58;100518.06;5059820;28;757;-53
2021/01/23 08:15:01;;;;;;;;;;;;;;;20.08;36.17;100516.81;5059832;28;767;-44
2021/01/23 08:17:35;;;;;;;;;;;;;;;19.10;38.03;100518.34;5063143;28;1115;-49
2021/01/23 08:20:01;;;;;;;;;;;;;;;20.06;36.17;100512.72;5079982;28;772;-57
2021/01/23 08:22:26;;;;;;;;;;;;;;;20.60;35.05;100518.59;5054897;28;967;-57
2021/01/23 08:24:51;;;;;;;;;;;;;;;20.00;36.13;100520.28;5059456;28;791;-57
2021/01/23 08:27:20;;;;;;;;;;;;;;;19.81;36.57;100520.31;5059495;28;736;-46
2021/01/23 08:29:47;;;;;;;;;;;;;;;19.08;38.32;100523.34;5059226;28;1934;-57
2021/01/23 08:32:12;;;;;;;;;;;;;;;19.99;36.29;100522.22;5058869;28;1574;-57
2021/01/23 08:34:37;;;;;;;;;;;;;;;20.49;35.43;100510.50;5076198;28;804;-56
2021/01/23 08:37:06;;;;;;;;;;;;;;;20.00;36.13;100520.28;5064356;28;913;-44
2021/01/23 08:39:48;;;;;;;;;;;;;;;19.88;36.60;100514.41;5059077;28;732;-50
2021/01/23 08:42:13;;;;;;;;;;;;;;;19.06;38.34;100509.03;5059256;28;721;-46
2021/01/23 08:44:39;;;;;;;;;;;;;;;20.15;36.19;100497.91;5058864;28;791;-60
2021/01/23 08:47:04;;;;;;;;;;;;;;;20.58;35.10;100499.59;5058788;28;783;-45
2021/01/23 08:49:30;;;;;;;;;;;;;;;20.18;36.02;100497.28;5058977;28;1917;-57
2021/01/23 08:51:56;;;;;;;;;;;;;;;19.83;36.68;100493.25;5058661;28;970;-45
2021/01/23 08:54:21;;;;;;;;;;;;;;;19.23;38.26;100502.19;5058580;28;808;-56
2021/01/23 08:56:47;;;;;;;;;;;;;;;20.16;36.05;100491.28;5058985;28;765;-43
2021/01/23 08:59:13;;;;;;;;;;;;;;;20.49;35.38;100495.88;5058601;28;775;-58
2021/01/23 09:01:39;;;;;;;;;;;;;;;20.12;36.31;100490.25;5040853;28;740;-56
2021/01/23 09:07:08;;;;;;;;;;;;;;;19.18;38.07;100482.94;5056589;28;1201;-43
2021/01/23 09:09:33;;;;;;;;;;;;;;;18.96;38.84;100492.63;5058443;28;1909;-57
2021/01/23 09:11:58;;;;;;;;;;;;;;;20.08;36.53;100478.16;5058645;28;796;-59
2021/01/23 09:14:24;;;;;;;;;;;;;;;20.43;35.50;100489.66;5058901;28;772;-46
2021/01/23 09:16:49;;;;;;;;;;;;;;;19.97;36.42;100487.75;5058249;28;824;-45
2021/01/23 09:19:15;;;;;;;;;;;;;;;19.59;37.48;100480.38;5077336;28;1190;-56
2021/01/23 09:21:40;;;;;;;;;;;;;;;19.43;38.01;100470.72;5060174;28;896;-53
2021/01/23 09:24:09;;;;;;;;;;;;;;;20.32;36.10;100463.38;5057961;28;994;-61
2021/01/23 09:26:35;;;;;;;;;;;;;;;20.36;36.20;100475.44;5058009;28;820;-58
2021/01/23 09:29:00;;;;;;;;;;;;;;;20.05;36.57;100477.94;5058259;28;1981;-61
2021/01/23 09:31:25;;;;;;;;;;;;;;;19.62;37.72;100465.97;5040214;28;792;-44
2021/01/23 09:33:51;;;;;;;;;;;;;;;19.33;38.18;100468.94;5058129;28;768;-63
2021/01/23 09:36:17;;;;;;;;;;;;;;;19.60;38.06;100483.94;5058130;28;760;-60
2021/01/23 09:38:42;;;;;;;;;;;;;;;20.46;36.13;100471.66;5057601;28;1019;-56
2021/01/23 09:41:10;;;;;;;;;;;;;;;20.12;37.11;100470.13;5057964;28;855;-61
2021/01/23 09:43:35;;;;;;;;;;;;;;;20.16;36.64;100463.66;5058106;28;712;-64
2021/01/23 09:46:01;;;;;;;;;;;;;;;19.31;38.49;100471.19;5039764;28;994;-51
2021/01/23 09:48:26;;;;;;;;;;;;;;;19.75;37.97;100469.06;5057762;28;1918;-61
2021/01/23 09:50:52;;;;;;;;;;;;;;;20.57;36.30;100444.66;5040296;28;859;-61
2021/01/23 09:53:17;;;;;;;;;;;;;;;20.08;37.15;100447.81;5057262;28;955;-48
2021/01/23 09:55:43;;;;;;;;;;;;;;;20.00;37.42;100448.50;5057708;28;788;-44
2021/01/23 09:58:08;;;;;;;;;;;;;;;19.38;38.69;100441.28;5039802;28;886;-62
2021/01/23 10:00:34;;;;;;;;;;;;;;;19.15;39.75;100449.38;5057396;28;847;-56
2021/01/23 10:02:59;;;;;;;;;;;;;;;19.18;40.22;100453.47;5057626;28;779;-45
2021/01/23 10:05:28;;;;;;;;;;;;;;;19.35;40.05;100438.31;5057582;28;1139;-59
2021/01/23 10:07:56;;;;;;;;;;;;;;;19.54;39.97;100441.84;5056569;28;1989;-58
2021/01/23 10:10:22;;;;;;;;;;;;;;;19.52;40.05;100435.81;5057152;28;1263;-53
2021/01/23 10:12:47;;;;;;;;;;;;;;;19.74;39.53;100437.94;5057463;28;800;-59
2021/01/23 10:15:13;;;;;;;;;;;;;;;19.90;39.02;100427.44;5039120;28;801;-51
2021/01/23 10:17:38;;;;;;;;;;;;;;;20.02;38.96;100429.72;5062771;28;1108;-59
2021/01/23 10:20:04;;;;;;;;;;;;;;;20.06;38.62;100424.41;5077363;28;748;-45
2021/01/23 10:22:29;;;;;;;;;;;;;;;20.00;38.72;100424.47;5070260;28;1025;-52
2021/01/23 10:24:55;;;;;;;;;;;;;;;20.07;38.33;100421.31;5057278;28;747;-56
2021/01/23 10:27:24;;;;;;;;;;;;;;;20.03;38.70;100412.03;5057353;28;760;-59
2021/01/23 10:29:50;;;;;;;;;;;;;;;20.07;38.42;100413.03;5038959;28;1914;-56
2021/01/23 10:32:15;;;;;;;;;;;;;;;20.02;38.67;100415.94;5057222;28;856;-58
2021/01/23 10:34:55;;;;;;;;;;;;;;;20.07;38.47;100410.28;5057035;28;764;-58
2021/01/23 10:37:27;;;;;;;;;;;;;;;20.09;38.48;100401.69;5056254;28;1085;-44
2021/01/23 10:39:52;;;;;;;;;;;;;;;20.18;38.10;100399.88;5057284;28;776;-56
2021/01/23 10:42:18;;;;;;;;;;;;;;;20.11;38.33;100410.50;5038993;28;749;-57
2021/01/23 10:44:43;;;;;;;;;;;;;;;20.19;38.29;100415.31;5056824;28;780;-59
2021/01/23 10:47:09;;;;;;;;;;;;;;;20.30;38.17;100396.56;5056758;28;800;-59
2021/01/23 10:49:35;;;;;;;;;;;;;;;20.27;37.80;100411.00;5056718;28;1906;-60
2021/01/23 10:52:00;;;;;;;;;;;;;;;20.39;37.89;100399.44;5058843;28;955;-45
2021/01/23 10:54:26;;;;;;;;;;;;;;;20.34;37.84;100397.59;5076819;28;836;-66
2021/01/23 10:56:51;;;;;;;;;;;;;;;20.35;37.72;100407.53;5076619;28;751;-54
2021/01/23 10:59:17;;;;;;;;;;;;;;;20.25;37.90;100405.78;5076446;28;778;-51
2021/01/23 11:01:42;;;;;;;;;;;;;;;20.25;37.84;100399.47;5076814;28;752;-58
2021/01/23 11:04:07;;;;;;;;;;;;;;;20.28;37.82;100398.84;5076721;28;850;-60
2021/01/23 11:06:33;;;;;;;;;;;;;;;20.35;37.98;100394.53;5076319;28;1171;-56
2021/01/23 11:08:58;;;;;;;;;;;;;;;20.42;37.96;100398.81;5056558;28;1913;-50
2021/01/23 11:11:24;;;;;;;;;;;;;;;19.99;38.57;100391.69;5022042;28;843;-57
2021/01/23 11:13:49;;;;;;;;;;;;;;;20.26;38.18;100395.56;5056187;28;823;-59
2021/01/23 11:16:15;;;;;;;;;;;;;;;20.21;38.32;100392.91;5056395;28;839;-54
2021/01/23 11:18:40;;;;;;;;;;;;;;;20.27;38.11;100384.22;5070379;28;1120;-61
2021/01/23 11:21:06;;;;;;;;;;;;;;;20.29;38.24;100383.91;5076275;28;795;-58
2021/01/23 11:23:31;;;;;;;;;;;;;;;20.29;38.31;100379.19;5041541;28;888;-58
2021/01/23 11:25:57;;;;;;;;;;;;;;;20.29;38.20;100372.88;5056120;28;796;-58
2021/01/23 11:28:22;;;;;;;;;;;;;;;20.35;38.00;100377.94;5071864;28;1967;-60
2021/01/23 11:30:49;;;;;;;;;;;;;;;20.33;38.25;100376.66;5076168;28;759;-56
2021/01/23 11:33:15;;;;;;;;;;;;;;;20.39;38.08;100366.31;5076258;28;800;-57
2021/01/23 11:35:49;;;;;;;;;;;;;;;20.40;38.20;100371.53;5076283;28;808;-61
2021/01/23 11:38:18;;;;;;;;;;;;;;;20.34;38.23;100372.75;5057621;28;1109;-60
2021/01/23 11:40:43;;;;;;;;;;;;;;;20.44;38.21;100377.22;5086430;28;1217;-59
2021/01/23 11:43:09;;;;;;;;;;;;;;;20.43;37.87;100375.63;5076700;28;1277;-60
2021/01/23 11:45:35;;;;;;;;;;;;;;;20.61;37.56;100382.13;5096101;28;767;-60
2021/01/23 11:48:00;;;;;;;;;;;;;;;20.48;37.75;100376.31;5096848;28;1901;-62
2021/01/23 11:50:26;;;;;;;;;;;;;;;20.38;38.15;100376.53;5096370;28;799;-55
2021/01/23 11:52:51;;;;;;;;;;;;;;;20.47;37.79;100366.38;5076398;28;1009;-59
2021/01/23 11:55:17;;;;;;;;;;;;;;;20.46;37.88;100355.66;5056105;28;768;-58
2021/01/23 11:57:42;;;;;;;;;;;;;;;20.44;38.01;100353.22;5056015;28;874;-59
2021/01/23 12:00:08;;;;;;;;;;;;;;;20.44;37.84;100347.69;5055593;28;795;-57
2021/01/23 12:02:37;;;;;;;;;;;;;;;20.45;38.03;100356.78;5056098;28;689;-61
2021/01/23 12:05:06;;;;;;;;;;;;;;;20.50;37.76;100346.44;5055983;28;815;-60
2021/01/23 12:07:35;;;;;;;;;;;;;;;20.54;37.70;100334.75;5038044;28;1009;-59
2021/01/23 12:10:01;;;;;;;;;;;;;;;20.40;37.99;100343.06;5056185;28;1922;-59
2021/01/23 12:12:26;;;;;;;;;;;;;;;20.39;38.12;100336.75;5055813;28;764;-57
2021/01/23 12:14:51;;;;;;;;;;;;;;;20.20;38.22;100339.63;5055858;28;732;-57
2021/01/23 12:17:17;;;;;;;;;;;;;;;20.35;38.23;100338.50;5058438;28;1170;-51
2021/01/23 12:19:42;;;;;;;;;;;;;;;20.45;37.78;100341.00;5058580;28;895;-46
2021/01/23 12:22:09;;;;;;;;;;;;;;;20.48;37.94;100332.13;5075796;28;974;-54
2021/01/23 12:24:34;;;;;;;;;;;;;;;20.43;37.75;100329.47;5059544;28;792;-58
2021/01/23 12:27:00;;;;;;;;;;;;;;;20.41;37.96;100336.44;5041763;28;811;-47
2021/01/23 12:29:25;;;;;;;;;;;;;;;20.42;37.80;100347.16;5073686;28;1977;-55
2021/01/23 12:31:51;;;;;;;;;;;;;;;20.34;38.03;100336.84;5079479;28;811;-61
2021/01/23 12:34:16;;;;;;;;;;;;;;;20.35;37.97;100335.72;5079464;28;816;-45
2021/01/23 12:36:42;;;;;;;;;;;;;;;20.36;38.05;100318.03;5078983;28;815;-54
2021/01/23 12:39:07;;;;;;;;;;;;;;;20.43;37.81;100314.84;5059344;28;998;-57
2021/01/23 12:41:33;;;;;;;;;;;;;;;20.48;37.82;100312.81;5041876;28;793;-56
2021/01/23 12:43:59;;;;;;;;;;;;;;;20.46;37.98;100317.78;5059037;28;882;-56
2021/01/23 12:46:24;;;;;;;;;;;;;;;20.40;37.80;100310.78;5059063;28;816;-60
2021/01/23 12:48:51;;;;;;;;;;;;;;;20.40;38.07;100309.94;5059211;28;1918;-56
2021/01/23 12:51:17;;;;;;;;;;;;;;;20.40;38.02;100312.69;5058832;28;852;-52
2021/01/23 12:53:43;;;;;;;;;;;;;;;20.45;38.07;100307.06;5058600;28;1037;-59
2021/01/23 12:56:08;;;;;;;;;;;;;;;20.46;37.67;100308.72;5058753;28;859;-53
2021/01/23 12:58:34;;;;;;;;;;;;;;;20.41;38.08;100304.13;5058696;28;799;-57
2021/01/23 13:00:59;;;;;;;;;;;;;;;20.51;37.64;100298.34;5058825;28;933;-58
2021/01/23 13:03:25;;;;;;;;;;;;;;;20.47;37.79;100302.88;5043607;28;1362;-55
2021/01/23 13:05:53;;;;;;;;;;;;;;;20.51;37.69;100312.16;5075882;28;1317;-55
2021/01/23 13:08:25;;;;;;;;;;;;;;;20.55;37.52;100308.78;5064211;28;1909;-59
2021/01/23 13:10:52;;;;;;;;;;;;;;;20.48;37.97;100303.69;5040744;28;1063;-43
2021/01/23 13:13:17;;;;;;;;;;;;;;;20.66;37.64;100316.53;5058419;28;752;-42
2021/01/23 13:15:43;;;;;;;;;;;;;;;20.27;38.33;100314.38;5058574;28;748;-57
2021/01/23 13:18:08;;;;;;;;;;;;;;;20.41;37.96;100315.19;5068236;28;1202;-58
2021/01/23 13:20:34;;;;;;;;;;;;;;;20.44;38.04;100320.06;5060606;28;1076;-55